createdAt,value
2019-01-18T00:01:47.701Z,55.1
2019-01-18T00:06:48.372Z,55.1
2019-01-18T00:11:49.071Z,55
2019-01-18T00:16:49.759Z,54.9
2019-01-18T00:21:50.411Z,54.9
2019-01-18T00:26:51.088Z,54.7
2019-01-18T00:31:51.739Z,54.7
2019-01-18T00:36:52.353Z,54.6
2019-01-18T00:41:52.956Z,54.6
2019-01-18T00:46:53.614Z,54.5
2019-01-18T00:51:54.310Z,54.4
2019-01-18T00:56:54.952Z,54.4
2019-01-18T01:01:55.664Z,54.3
2019-01-18T01:06:56.335Z,54.2
2019-01-18T01:11:57.007Z,54.1
2019-01-18T01:16:57.671Z,54.1
2019-01-18T01:21:58.320Z,54
2019-01-18T01:26:58.981Z,53.9
2019-01-18T01:31:59.627Z,53.9
2019-01-18T01:37:00.263Z,53.8
2019-01-18T01:42:00.886Z,53.7
2019-01-18T01:47:01.483Z,53.7
2019-01-18T01:52:02.070Z,53.6
2019-01-18T01:57:02.663Z,53.5
2019-01-18T02:02:03.306Z,53.4
2019-01-18T02:07:03.930Z,53.4
2019-01-18T02:12:04.585Z,53.3
2019-01-18T02:17:05.149Z,53.3
2019-01-18T02:22:05.690Z,53.2
2019-01-18T02:27:06.282Z,53.1
2019-01-18T02:32:06.875Z,53
2019-01-18T02:37:07.490Z,52.9
2019-01-18T02:42:08.136Z,52.9
2019-01-18T02:47:11.385Z,52.8
2019-01-18T02:52:11.946Z,52.7
2019-01-18T02:57:12.555Z,52.7
2019-01-18T03:02:14.168Z,52.6
2019-01-18T03:07:14.710Z,52.6
2019-01-18T03:12:15.289Z,52.5
2019-01-18T03:17:15.833Z,52.4
2019-01-18T03:22:16.385Z,52.3
2019-01-18T03:27:16.987Z,52.2
2019-01-18T03:32:17.610Z,52.2
2019-01-18T03:37:18.189Z,52.1
2019-01-18T03:42:18.744Z,52.1
2019-01-18T03:47:19.345Z,52
2019-01-18T03:52:19.806Z,51.9
2019-01-18T03:57:20.308Z,51.9
2019-01-18T04:02:20.827Z,51.8
2019-01-18T04:07:21.405Z,51.7
2019-01-18T04:12:21.970Z,51.6
2019-01-18T04:17:22.476Z,51.6
2019-01-18T04:22:24.281Z,51.5
2019-01-18T04:27:24.794Z,51.4
2019-01-18T04:32:25.375Z,51.4
2019-01-18T04:37:25.921Z,51.3
2019-01-18T04:42:26.477Z,51.2
2019-01-18T04:47:27.022Z,51.2
2019-01-18T04:52:28.130Z,51.1
2019-01-18T04:57:28.679Z,51.1
2019-01-18T05:02:29.170Z,50.9
2019-01-18T05:12:34.809Z,50.8
2019-01-18T05:17:35.318Z,50.8
2019-01-18T05:22:35.893Z,50.7
2019-01-18T05:27:36.362Z,50.6
2019-01-18T05:32:36.892Z,50.6
2019-01-18T05:37:37.491Z,50.5
2019-01-18T05:42:38.058Z,50.4
2019-01-18T05:47:38.507Z,50.4
2019-01-18T05:52:38.942Z,49.9
2019-01-18T05:57:41.100Z,49.7
2019-01-18T06:02:43.235Z,49.7
2019-01-18T06:07:45.378Z,49.6
2019-01-18T06:12:47.498Z,49.6
2019-01-18T06:17:49.670Z,49.5
2019-01-18T06:22:51.860Z,49.4
2019-01-18T06:27:53.949Z,49.4
2019-01-18T06:32:57.369Z,49.3
2019-01-18T06:37:59.481Z,49.2
2019-01-18T06:43:01.583Z,49.2
2019-01-18T06:48:06.405Z,49.1
2019-01-18T06:53:11.436Z,49.1
2019-01-18T06:58:14.346Z,49
2019-01-18T07:03:16.407Z,48.9
2019-01-18T07:08:19.421Z,48.9
2019-01-18T07:13:21.498Z,48.8
2019-01-18T07:18:23.607Z,48.7
2019-01-18T07:28:32.407Z,48.6
2019-01-18T07:33:35.569Z,48.6
2019-01-18T07:38:37.621Z,48.5
2019-01-18T07:43:39.707Z,48.4
2019-01-18T07:48:42.612Z,48.4
2019-01-18T07:53:44.655Z,48.3
2019-01-18T07:58:46.735Z,48.3
2019-01-18T08:03:48.798Z,48.2
2019-01-18T08:08:50.870Z,48.1
2019-01-18T08:13:52.903Z,48.1
2019-01-18T08:18:55.025Z,48.1
2019-01-18T08:23:57.084Z,48
2019-01-18T08:28:59.116Z,47.9
2019-01-18T08:34:01.384Z,47.9
2019-01-18T08:39:03.486Z,47.8
2019-01-18T08:44:05.558Z,47.7
2019-01-18T08:49:07.579Z,47.7
2019-01-18T08:54:09.392Z,47.6
2019-01-18T08:59:11.418Z,47.6
2019-01-18T09:04:13.443Z,47.5
2019-01-18T09:09:15.462Z,47.5
2019-01-18T09:14:19.479Z,47.4
2019-01-18T09:19:21.654Z,47.4
2019-01-18T09:24:23.659Z,47.3
2019-01-18T09:29:25.703Z,47.2
2019-01-18T09:34:27.782Z,47.2
2019-01-18T09:39:29.824Z,47.1
2019-01-18T09:44:31.826Z,47.1
2019-01-18T09:49:33.848Z,47
2019-01-18T09:54:38.712Z,46.9
2019-01-18T09:59:41.773Z,46.9
2019-01-18T10:04:43.772Z,46.9
2019-01-18T10:09:45.804Z,46.8
2019-01-18T10:14:47.830Z,46.7
2019-01-18T10:19:49.826Z,46.7
2019-01-18T10:24:51.786Z,46.7
2019-01-18T10:29:53.753Z,46.6
2019-01-18T10:34:55.793Z,46.6
2019-01-18T10:39:58.410Z,46.5
2019-01-18T10:45:00.453Z,46.4
2019-01-18T10:50:02.456Z,46.4
2019-01-18T10:55:04.477Z,46.3
2019-01-18T11:00:06.505Z,46.3
2019-01-18T11:05:08.625Z,46.2
2019-01-18T11:10:10.688Z,46.1
2019-01-18T11:15:12.621Z,46.1
2019-01-18T11:20:14.596Z,46.1
2019-01-18T11:25:16.627Z,46
2019-01-18T11:30:18.595Z,45.9
2019-01-18T11:35:20.566Z,45.9
2019-01-18T11:40:22.571Z,45.9
2019-01-18T11:45:24.570Z,45.8
2019-01-18T11:50:26.565Z,45.8
2019-01-18T11:55:28.533Z,45.7
2019-01-18T12:00:30.507Z,45.6
2019-01-18T12:05:35.538Z,45.6
2019-01-18T12:10:37.553Z,45.5
2019-01-18T12:15:39.516Z,45.5
2019-01-18T12:20:41.485Z,45.4
2019-01-18T12:25:43.929Z,45.4
2019-01-18T12:30:45.981Z,45.4
2019-01-18T12:35:47.996Z,45.3
2019-01-18T12:40:49.975Z,45.2
2019-01-18T12:45:51.986Z,45.2
2019-01-18T12:50:53.953Z,45.1
2019-01-18T12:55:55.907Z,45.1
2019-01-18T13:00:57.888Z,45.1
2019-01-18T13:05:59.371Z,45
2019-01-18T13:11:10.255Z,44.9
2019-01-18T13:16:12.212Z,44.9
2019-01-18T13:21:14.231Z,44.9
2019-01-18T13:26:16.325Z,44.8
2019-01-18T13:31:18.385Z,44.8
2019-01-18T13:36:21.112Z,44.6
2019-01-18T13:41:23.084Z,44.2
2019-01-18T13:46:24.999Z,44.1
2019-01-18T13:51:26.950Z,44.1
2019-01-18T13:56:28.875Z,44.1
2019-01-18T14:01:30.805Z,44
2019-01-18T14:06:32.705Z,43.9
2019-01-18T14:11:34.652Z,43.9
2019-01-18T14:16:36.606Z,43.9
2019-01-18T14:21:38.567Z,43.8
2019-01-18T14:26:39.540Z,43.7
2019-01-18T14:31:41.503Z,43.7
2019-01-18T14:36:43.022Z,43.7
2019-01-18T14:41:44.959Z,43.6
2019-01-18T14:46:46.974Z,43.6
2019-01-18T14:51:48.906Z,43.6
2019-01-18T14:56:50.803Z,43.5
2019-01-18T15:01:52.697Z,43.5
2019-01-18T15:06:54.670Z,43.4
2019-01-18T15:11:56.716Z,43
2019-01-18T15:16:58.623Z,42.7
2019-01-18T15:22:00.536Z,42.7
2019-01-18T15:27:02.414Z,42.7
2019-01-18T15:32:04.374Z,42.6
2019-01-18T15:37:06.401Z,42.6
2019-01-18T15:42:08.848Z,42.6
2019-01-18T15:47:10.713Z,42.5
2019-01-18T15:52:12.591Z,42.5
2019-01-18T15:57:14.569Z,42.4
2019-01-18T16:02:16.492Z,42.4
2019-01-18T16:07:18.379Z,42.4
2019-01-18T16:12:20.311Z,42.3
2019-01-18T16:17:22.173Z,42.3
2019-01-18T16:22:24.065Z,42.2
2019-01-18T16:27:26.990Z,42.2
2019-01-18T16:32:28.883Z,42.2
2019-01-18T16:37:30.778Z,42.1
2019-01-18T16:42:32.706Z,42.1
2019-01-18T16:47:34.567Z,42.1
2019-01-18T16:52:36.412Z,42
2019-01-18T16:57:38.336Z,42
2019-01-18T17:02:40.241Z,41.9
2019-01-18T17:07:42.138Z,41.9
2019-01-18T17:12:44.014Z,41.9
2019-01-18T17:17:45.892Z,41.9
2019-01-18T17:22:47.689Z,41.8
2019-01-18T17:27:49.543Z,41.7
2019-01-18T17:32:51.483Z,41.7
2019-01-18T17:37:53.595Z,41.7
2019-01-18T17:42:55.437Z,41.6
2019-01-18T17:47:57.320Z,41.6
2019-01-18T17:52:59.162Z,41.6
2019-01-18T17:58:04.624Z,41.6
2019-01-18T18:03:16.151Z,41.5
2019-01-18T18:08:19.274Z,41.5
2019-01-18T18:13:21.160Z,41.4
2019-01-18T18:18:23.135Z,41.4
2019-01-18T18:23:25.015Z,41.4
2019-01-18T18:28:26.817Z,41.3
2019-01-18T18:33:28.653Z,41.3
2019-01-18T18:38:30.470Z,41.2
2019-01-18T18:43:32.343Z,41.2
2019-01-18T18:48:46.157Z,41.2
2019-01-18T18:53:47.975Z,41.2
2019-01-18T18:58:50.844Z,41.1
2019-01-18T19:03:57.331Z,41.1
2019-01-18T19:08:59.435Z,41.3
2019-01-18T19:14:01.339Z,43.8
2019-01-18T19:19:03.350Z,45.4
2019-01-18T19:24:05.466Z,46.8
2019-01-18T19:29:07.523Z,48.1
2019-01-18T19:34:09.553Z,49.1
2019-01-18T19:39:10.042Z,49.9
2019-01-18T19:44:11.515Z,50.8
2019-01-18T19:49:12.021Z,51.3
2019-01-18T19:54:12.541Z,52
2019-01-18T19:59:13.087Z,52.5
2019-01-18T20:04:16.930Z,53.2
2019-01-18T20:09:17.483Z,53.7
2019-01-18T20:14:18.085Z,53.7
2019-01-18T20:19:20.856Z,53.7
2019-01-18T20:24:21.485Z,53.7
2019-01-18T20:29:22.070Z,53.6
2019-01-18T20:34:22.668Z,53.6
2019-01-18T20:39:23.220Z,53.6
2019-01-18T20:44:23.796Z,53.5
2019-01-18T20:49:24.430Z,53.5
2019-01-18T20:54:25.104Z,53.4
2019-01-18T20:59:25.756Z,53.4
2019-01-18T21:04:33.157Z,53.3
2019-01-18T21:09:35.408Z,53.3
2019-01-18T21:14:36.043Z,53.3
2019-01-18T21:19:36.615Z,53.2
2019-01-18T21:24:37.226Z,53.1
2019-01-18T21:29:37.816Z,53.1
2019-01-18T21:34:38.433Z,53.1
2019-01-18T21:39:39.090Z,53
2019-01-18T21:44:39.685Z,52.9
2019-01-18T21:49:40.299Z,52.9
2019-01-18T21:54:40.963Z,52.8
2019-01-18T21:59:41.575Z,52.8
2019-01-18T22:04:42.258Z,52.7
2019-01-18T22:09:48.267Z,52.7
2019-01-18T22:14:51.621Z,52.6
2019-01-18T22:19:52.207Z,52.6
2019-01-18T22:24:55.765Z,52.5
2019-01-18T22:29:56.322Z,52.5
2019-01-18T22:34:56.920Z,52.4
2019-01-18T22:39:57.485Z,52.4
2019-01-18T22:44:58.916Z,52.3
2019-01-18T22:49:59.436Z,52.2
2019-01-18T22:55:01.080Z,52.2
2019-01-18T23:00:01.620Z,52.2
2019-01-18T23:05:02.142Z,52.1
2019-01-18T23:10:02.712Z,52.1
2019-01-18T23:15:03.283Z,52
2019-01-18T23:20:03.884Z,51.9
2019-01-18T23:25:05.071Z,51.9
2019-01-18T23:30:05.608Z,51.8
2019-01-18T23:35:07.042Z,51.7
2019-01-18T23:40:07.565Z,51.7
2019-01-18T23:45:08.069Z,51.6
2019-01-18T23:50:08.605Z,51.6
2019-01-18T23:55:09.198Z,51.6
